Time;durP1;ratioP1;P1;durP2;ratioP2;P2;SDS_P1;SDS_P2;PMS_P1;PMS_P2;Temp;Humidity;BMP_temperature;BMP_pressure;BME280_temperature;BME280_humidity;BME280_pressure;Samples;Min_cycle;Max_cycle;Signal;HPM_P1;HPM_P2
2022/04/04 00:00:16;;;;;;;8.40;5.57;;;;;;;4.98;50.84;101062.69;5102307;27;20221;-63
2022/04/04 00:02:45;;;;;;;10.53;5.90;;;;;;;4.98;50.78;101062.69;5095831;27;20561;-63
2022/04/04 00:05:13;;;;;;;15.00;6.30;;;;;;;5.02;50.36;101067.66;5098781;27;20213;-63
2022/04/04 00:07:41;;;;;;;9.10;5.87;;;;;;;4.94;50.78;101062.03;5098906;28;20304;-62
2022/04/04 00:10:09;;;;;;;10.83;6.43;;;;;;;4.66;51.82;101060.31;5090337;27;20236;-63
2022/04/04 00:12:37;;;;;;;9.73;5.83;;;;;;;4.49;52.08;101055.25;5092891;27;20410;-62
2022/04/04 00:15:06;;;;;;;10.77;6.93;;;;;;;4.24;52.90;101050.69;5099929;27;20209;-62
2022/04/04 00:17:33;;;;;;;10.10;6.40;;;;;;;3.85;53.65;101053.09;5094915;27;20318;-64
2022/04/04 00:20:04;;;;;;;10.20;6.57;;;;;;;3.91;53.31;101043.06;5101439;28;20290;-64
2022/04/04 00:22:32;;;;;;;10.87;6.37;;;;;;;4.28;52.55;101038.22;5095154;27;20244;-64
2022/04/04 00:25:00;;;;;;;12.40;6.40;;;;;;;4.71;51.62;101039.88;5097821;27;20199;-63
2022/04/04 00:27:27;;;;;;;10.93;6.30;;;;;;;4.55;51.78;101041.78;5102122;27;20218;-63
2022/04/04 00:29:55;;;;;;;11.23;5.80;;;;;;;4.60;51.66;101034.44;5095362;27;20574;-62
2022/04/04 00:32:24;;;;;;;9.03;6.23;;;;;;;4.51;51.60;101033.22;5096105;27;20228;-64
2022/04/04 00:34:52;;;;;;;13.57;6.10;;;;;;;4.34;52.42;101027.34;5099345;27;20298;-64
2022/04/04 00:37:21;;;;;;;9.30;5.60;;;;;;;4.64;51.28;101028.06;5102630;27;20311;-63
2022/04/04 00:39:49;;;;;;;8.40;5.60;;;;;;;4.82;51.16;101034.78;5094059;27;20288;-64
2022/04/04 00:42:17;;;;;;;8.93;5.00;;;;;;;4.86;50.34;101033.63;5093115;27;21071;-64
2022/04/04 00:44:46;;;;;;;7.63;5.20;;;;;;;4.79;50.13;101036.75;5097791;27;20217;-64
2022/04/04 00:47:13;;;;;;;8.00;5.27;;;;;;;4.82;50.17;101029.53;5102710;27;20559;-63
2022/04/04 00:49:41;;;;;;;9.33;5.47;;;;;;;4.91;50.48;101030.72;5097488;27;20350;-62
2022/04/04 00:52:09;;;;;;;10.47;5.57;;;;;;;4.72;51.16;101025.78;5100594;27;20216;-63
2022/04/04 00:54:38;;;;;;;10.43;5.47;;;;;;;4.79;50.64;101016.56;5094659;27;20212;-64
2022/04/04 00:57:06;;;;;;;9.03;5.77;;;;;;;4.67;50.92;101012.09;5096464;27;20210;-64
2022/04/04 00:59:35;;;;;;;9.87;5.87;;;;;;;3.53;53.77;101021.72;5096005;27;20718;-63
2022/04/04 01:02:03;;;;;;;8.07;5.00;;;;;;;3.58;53.73;101024.94;5097316;27;20210;-62
2022/04/04 01:04:31;;;;;;;13.60;5.30;;;;;;;3.92;53.00;101013.28;5095077;27;20206;-62
2022/04/04 01:07:00;;;;;;;9.03;5.07;;;;;;;3.65;53.75;101014.91;5093646;27;20561;-64
2022/04/04 01:09:28;;;;;;;8.93;5.53;;;;;;;3.59;53.99;101012.66;5098176;27;20207;-63
2022/04/04 01:12:05;;;;;;;8.73;6.13;;;;;;;3.55;54.55;101011.16;5095682;28;20662;-63
2022/04/04 01:14:35;;;;;;;12.13;6.07;;;;;;;3.65;54.12;101021.00;5091348;27;20246;-63
2022/04/04 01:17:03;;;;;;;10.10;5.47;;;;;;;3.47;54.46;101014.22;5099016;27;20213;-62
2022/04/04 01:19:31;;;;;;;10.03;5.00;;;;;;;3.05;55.83;101014.91;5094632;27;20258;-64
2022/04/04 01:21:59;;;;;;;9.97;5.60;;;;;;;3.42;54.59;101007.56;5094790;27;20218;-62
2022/04/04 01:24:28;;;;;;;10.97;4.90;;;;;;;3.02;55.55;101008.06;5097464;27;20664;-63
2022/04/04 01:26:56;;;;;;;8.50;4.97;;;;;;;2.85;55.93;101002.94;5092474;27;20217;-62
2022/04/04 01:29:24;;;;;;;12.77;6.13;;;;;;;2.96;56.39;101005.81;5094117;27;20205;-63
2022/04/04 01:31:52;;;;;;;8.10;4.93;;;;;;;2.87;56.43;101005.47;5090885;27;20657;-63
2022/04/04 01:34:20;;;;;;;11.33;5.23;;;;;;;3.07;56.06;101001.75;5096491;27;20305;-63
2022/04/04 01:36:49;;;;;;;9.27;5.40;;;;;;;3.07;56.05;100999.97;5093364;27;20230;-63
2022/04/04 01:39:16;;;;;;;11.77;5.37;;;;;;;2.85;56.89;100994.25;5097338;27;20708;-62
2022/04/04 01:41:46;;;;;;;8.80;5.17;;;;;;;2.93;56.28;100984.16;5093621;27;20199;-64
2022/04/04 01:44:13;;;;;;;12.83;5.17;;;;;;;2.52;58.04;100987.34;5095829;27;20300;-63
2022/04/04 01:46:41;;;;;;;9.53;6.17;;;;;;;2.58;58.10;100984.38;5099978;27;20217;-63
2022/04/04 01:49:10;;;;;;;11.67;5.73;;;;;;;2.92;57.07;100982.47;5099877;27;20212;-61
2022/04/04 01:51:39;;;;;;;9.03;5.00;;;;;;;2.89;56.25;100982.66;5094731;27;20723;-63
2022/04/04 01:54:07;;;;;;;10.90;4.80;;;;;;;2.71;57.33;100978.47;5097336;27;20711;-63
2022/04/04 01:56:35;;;;;;;8.10;5.00;;;;;;;2.83;56.49;100983.84;5091976;27;20301;-63
2022/04/04 01:59:04;;;;;;;9.80;4.70;;;;;;;2.76;57.35;100986.91;5095929;27;20256;-63
2022/04/04 02:01:34;;;;;;;9.10;5.33;;;;;;;2.88;56.64;100986.22;5096236;27;20209;-63
2022/04/04 02:04:05;;;;;;;10.53;5.37;;;;;;;2.92;56.52;100988.56;5094498;27;20198;-63
2022/04/04 02:06:33;;;;;;;12.20;5.70;;;;;;;3.13;56.33;100976.03;5094812;27;20220;-63
2022/04/04 02:09:01;;;;;;;8.97;5.30;;;;;;;2.72;57.47;100985.41;5098979;27;21426;-63
2022/04/04 02:11:28;;;;;;;10.67;6.23;;;;;;;2.81;57.14;100990.13;5097377;28;20212;-63
2022/04/04 02:13:58;;;;;;;13.17;5.67;;;;;;;2.44;58.38;100983.44;5089658;27;20218;-63
2022/04/04 02:16:27;;;;;;;9.57;5.60;;;;;;;2.59;58.06;100983.44;5098679;28;20661;-63
2022/04/04 02:18:56;;;;;;;8.40;4.97;;;;;;;2.55;58.08;100984.53;5089264;27;20418;-62
2022/04/04 02:21:24;;;;;;;11.20;5.27;;;;;;;2.46;58.16;100984.22;5096944;28;20345;-63
2022/04/04 02:23:52;;;;;;;9.00;6.13;;;;;;;2.46;58.71;100978.97;5096371;28;20207;-65
2022/04/04 02:26:22;;;;;;;9.97;5.40;;;;;;;2.72;58.04;100974.91;5099207;28;20214;-62
2022/04/04 02:28:49;;;;;;;11.77;5.13;;;;;;;2.70;57.84;100971.53;5090034;28;20207;-61
2022/04/04 02:31:17;;;;;;;8.83;5.37;;;;;;;2.78;57.79;100975.41;5095501;28;20206;-63
2022/04/04 02:33:46;;;;;;;7.80;4.80;;;;;;;2.88;57.28;100975.75;5090381;28;20206;-63
2022/04/04 02:36:14;;;;;;;11.10;5.67;;;;;;;2.68;57.37;100976.00;5096192;28;20238;-63
2022/04/04 02:38:42;;;;;;;8.57;5.53;;;;;;;2.72;57.65;100973.16;5097455;28;20724;-63
2022/04/04 02:41:09;;;;;;;11.40;5.83;;;;;;;2.94;57.29;100981.47;5095013;28;20717;-62
2022/04/04 02:43:37;;;;;;;10.77;5.63;;;;;;;2.75;57.90;100977.34;5092808;28;20237;-62
2022/04/04 02:46:05;;;;;;;11.10;5.60;;;;;;;2.83;57.91;100978.59;5097397;28;20210;-62
2022/04/04 02:48:34;;;;;;;12.83;5.57;;;;;;;2.63;58.49;100971.03;5099378;28;20214;-62
2022/04/04 02:51:03;;;;;;;11.83;5.60;;;;;;;2.33;59.84;100973.56;5098759;28;20206;-63
2022/04/04 02:53:31;;;;;;;13.57;6.10;;;;;;;2.45;59.30;100977.28;5094663;28;20216;-62
2022/04/04 02:58:46;;;;;;;11.03;5.50;;;;;;;2.93;57.65;100968.44;5097753;28;20233;-62
2022/04/04 03:01:14;;;;;;;10.70;6.10;;;;;;;2.77;58.03;100967.63;5096164;28;20282;-62
2022/04/04 03:03:41;;;;;;;11.70;5.67;;;;;;;2.44;59.13;100959.88;5093542;28;20239;-62
2022/04/04 03:06:11;;;;;;;12.67;6.67;;;;;;;2.12;59.87;100961.63;5098681;28;20208;-62
2022/04/04 03:08:38;;;;;;;16.50;6.67;;;;;;;1.96;60.35;100965.97;5097625;27;20210;-62
2022/04/04 03:11:06;;;;;;;12.70;5.93;;;;;;;2.59;58.86;100962.50;5098309;27;20303;-63
2022/04/04 03:13:34;;;;;;;10.47;5.40;;;;;;;2.57;58.00;100956.50;5102568;27;20228;-62
2022/04/04 03:16:01;;;;;;;12.10;6.27;;;;;;;1.95;60.34;100953.84;5096491;27;21805;-62
2022/04/04 03:18:29;;;;;;;12.60;5.93;;;;;;;1.91;60.39;100954.94;5099805;27;20214;-63
2022/04/04 03:20:57;;;;;;;13.90;6.63;;;;;;;1.94;60.59;100954.75;5097798;27;20230;-61
2022/04/04 03:23:27;;;;;;;11.67;6.13;;;;;;;2.08;59.85;100953.13;5099419;27;20206;-62
2022/04/04 03:25:55;;;;;;;15.00;7.00;;;;;;;1.84;60.60;100942.19;5094894;27;20297;-63
2022/04/04 03:28:23;;;;;;;10.13;6.13;;;;;;;2.09;60.11;100935.66;5100046;27;20216;-63
2022/04/04 03:30:51;;;;;;;11.03;6.37;;;;;;;2.05;59.32;100947.19;5098745;27;20251;-63
2022/04/04 03:33:19;;;;;;;12.03;5.70;;;;;;;1.62;61.17;100938.16;5101813;27;20539;-62
2022/04/04 03:35:55;;;;;;;12.70;6.00;;;;;;;2.07;59.83;100930.50;5097951;27;20260;-62
2022/04/04 03:38:27;;;;;;;11.40;6.03;;;;;;;1.72;60.89;100929.75;5096989;27;20233;-62
2022/04/04 03:40:55;;;;;;;14.23;6.20;;;;;;;2.04;59.75;100929.81;5095287;27;20245;-63
2022/04/04 03:43:24;;;;;;;11.70;6.13;;;;;;;2.14;59.25;100931.00;5104927;27;20293;-63
2022/04/04 03:45:52;;;;;;;12.37;6.07;;;;;;;1.86;59.94;100927.25;5093787;27;20302;-63
2022/04/04 03:48:30;;;;;;;11.20;5.70;;;;;;;1.80;60.62;100929.34;5103128;27;20206;-64
2022/04/04 03:50:58;;;;;;;12.80;6.13;;;;;;;2.00;60.26;100923.91;5093927;27;20212;-62
2022/04/04 03:53:27;;;;;;;10.67;5.70;;;;;;;2.17;58.97;100921.22;5102557;27;20301;-63
2022/04/04 03:55:55;;;;;;;11.47;6.17;;;;;;;2.34;59.23;100922.06;5100198;27;20256;-62
2022/04/04 03:58:23;;;;;;;11.77;5.93;;;;;;;2.29;59.07;100916.25;5101901;27;20202;-63
2022/04/04 04:00:51;;;;;;;14.40;6.67;;;;;;;1.73;61.00;100915.75;5096130;27;20265;-63
2022/04/04 04:03:19;;;;;;;11.50;6.57;;;;;;;1.80;60.95;100911.88;5094681;27;20212;-63
2022/04/04 04:05:48;;;;;;;14.10;6.50;;;;;;;1.47;61.88;100911.06;5095418;27;20296;-62
2022/04/04 04:08:15;;;;;;;13.03;6.10;;;;;;;1.52;62.21;100906.41;5093807;27;20274;-63
2022/04/04 04:10:45;;;;;;;11.43;6.30;;;;;;;2.04;60.59;100911.47;5096089;27;20340;-61
2022/04/04 04:13:12;;;;;;;14.30;6.20;;;;;;;2.38;59.14;100911.31;5095841;27;20206;-62
2022/04/04 04:15:40;;;;;;;10.90;6.33;;;;;;;2.79;57.85;100902.91;5101281;27;20226;-63
2022/04/04 04:18:25;;;;;;;12.60;6.60;;;;;;;2.45;58.62;100901.38;5095590;27;20201;-63
2022/04/04 04:20:52;;;;;;;10.00;5.77;;;;;;;2.14;59.53;100895.22;5096557;27;20697;-62
2022/04/04 04:23:20;;;;;;;14.40;5.87;;;;;;;2.11;60.00;100899.78;5100487;27;20202;-63
2022/04/04 04:25:50;;;;;;;14.17;5.40;;;;;;;1.84;60.90;100892.50;5099465;27;20267;-63
2022/04/04 04:28:18;;;;;;;12.37;5.97;;;;;;;1.92;60.25;100901.72;5104108;28;20205;-62
2022/04/04 04:30:46;;;;;;;10.97;6.03;;;;;;;2.01;60.26;100899.44;5103231;27;20328;-61
2022/04/04 04:33:14;;;;;;;13.00;5.73;;;;;;;2.18;59.85;100899.38;5108223;28;20206;-62
2022/04/04 04:35:42;;;;;;;15.97;6.47;;;;;;;1.48;62.18;100894.44;5104371;28;20206;-64
2022/04/04 04:38:09;;;;;;;15.60;5.93;;;;;;;1.60;62.13;100896.41;5106536;27;20232;-64
2022/04/04 04:40:37;;;;;;;10.73;6.13;;;;;;;1.41;62.58;100890.44;5102768;27;20233;-61
2022/04/04 04:43:06;;;;;;;11.47;6.10;;;;;;;1.91;61.03;100893.00;5094434;27;20244;-62
2022/04/04 04:45:34;;;;;;;16.27;7.33;;;;;;;1.56;61.86;100897.50;5100665;28;20778;-62
2022/04/04 04:48:02;;;;;;;24.20;10.37;;;;;;;1.42;62.47;100895.59;5096661;27;20210;-62
2022/04/04 04:50:30;;;;;;;14.07;7.17;;;;;;;1.50;62.88;100897.81;5098078;27;20202;-62
2022/04/04 04:52:58;;;;;;;16.80;6.97;;;;;;;1.52;62.40;100888.97;5097158;27;20216;-63
2022/04/04 04:55:27;;;;;;;14.52;7.38;;;;;;;1.54;62.76;100883.66;5094369;27;20463;-67
2022/04/04 04:57:55;;;;;;;13.83;6.87;;;;;;;1.72;62.00;100881.84;5092835;27;20216;-66
2022/04/04 05:00:29;;;;;;;14.33;6.73;;;;;;;1.82;61.55;100877.81;5096465;27;20261;-66
2022/04/04 05:05:43;;;;;;;16.40;6.10;;;;;;;1.36;63.08;100884.63;5094652;27;20201;-66
2022/04/04 05:08:12;;;;;;;13.40;6.60;;;;;;;1.64;62.45;100871.81;5098860;27;20643;-66
2022/04/04 05:10:40;;;;;;;12.13;5.83;;;;;;;1.36;63.01;100877.63;5096898;27;20205;-65
2022/04/04 05:13:07;;;;;;;13.60;5.67;;;;;;;1.26;63.47;100876.41;5095255;27;20304;-67
2022/04/04 05:15:37;;;;;;;14.53;5.87;;;;;;;1.33;63.47;100874.31;5095582;27;20209;-66
2022/04/04 05:18:05;;;;;;;14.20;6.73;;;;;;;1.23;63.79;100866.13;5100581;27;20207;-66
2022/04/04 05:20:32;;;;;;;12.07;5.87;;;;;;;1.31;63.76;100871.81;5097288;27;20317;-66
2022/04/04 05:23:00;;;;;;;21.50;7.00;;;;;;;1.44;63.02;100866.78;5096533;27;20669;-67
2022/04/04 05:25:39;;;;;;;11.17;6.17;;;;;;;1.36;63.32;100863.72;5105469;27;20206;-66
2022/04/04 05:28:07;;;;;;;11.37;5.87;;;;;;;1.31;63.59;100863.13;5098375;27;20571;-66
2022/04/04 05:30:36;;;;;;;10.60;5.50;;;;;;;1.51;63.22;100863.75;5099392;27;20279;-66
2022/04/04 05:33:04;;;;;;;16.00;6.67;;;;;;;1.31;63.63;100866.59;5097691;27;20305;-66
2022/04/04 05:35:32;;;;;;;14.87;6.97;;;;;;;1.79;62.72;100867.50;5100036;27;20219;-66
2022/04/04 05:38:00;;;;;;;11.30;6.30;;;;;;;1.73;63.07;100873.09;5095600;28;20237;-66
2022/04/04 05:40:29;;;;;;;20.23;7.20;;;;;;;2.29;61.00;100866.53;5098206;27;20226;-67
2022/04/04 05:42:57;;;;;;;13.93;6.43;;;;;;;1.82;62.03;100868.19;5098052;27;20298;-67
2022/04/04 05:45:24;;;;;;;12.27;6.30;;;;;;;1.54;63.24;100862.75;5092446;27;20225;-66
2022/04/04 05:47:53;;;;;;;18.67;7.37;;;;;;;1.45;63.74;100866.69;5097585;27;20210;-66
2022/04/04 05:50:21;;;;;;;13.67;6.60;;;;;;;1.60;63.60;100854.56;5098023;27;20289;-67
2022/04/04 05:52:51;;;;;;;15.37;7.83;;;;;;;1.87;62.47;100862.72;5101745;27;20624;-67
2022/04/04 05:55:19;;;;;;;17.53;8.47;;;;;;;1.77;63.04;100864.13;5098923;28;20248;-66
2022/04/04 05:57:47;;;;;;;18.63;8.00;;;;;;;1.93;62.78;100864.16;5095830;27;20678;-65
2022/04/04 06:00:16;;;;;;;14.97;7.97;;;;;;;1.96;62.88;100864.81;5099999;27;20229;-66
2022/04/04 06:02:46;;;;;;;15.13;8.23;;;;;;;1.88;63.16;100865.25;5097475;27;20297;-67
2022/04/04 06:05:15;;;;;;;18.70;8.40;;;;;;;2.77;60.13;100855.00;5100177;28;20210;-66
2022/04/04 06:07:43;;;;;;;15.10;8.53;;;;;;;2.76;60.06;100869.03;5094593;27;20249;-66
2022/04/04 06:10:13;;;;;;;16.07;8.43;;;;;;;2.67;60.47;100873.03;5096508;28;20305;-66
2022/04/04 06:12:43;;;;;;;18.97;8.53;;;;;;;2.19;62.50;100876.66;5101797;27;20524;-66
2022/04/04 06:15:11;;;;;;;17.67;9.07;;;;;;;2.53;61.30;100873.84;5095879;27;21294;-67
2022/04/04 06:17:42;;;;;;;19.70;9.77;;;;;;;2.27;62.17;100874.47;5101655;27;20213;-67
2022/04/04 06:20:11;;;;;;;22.23;10.43;;;;;;;2.19;62.63;100867.03;5096989;27;20216;-67
2022/04/04 06:22:45;;;;;;;21.27;10.30;;;;;;;1.96;63.31;100866.59;5102924;27;20229;-67
2022/04/04 06:25:13;;;;;;;20.53;10.50;;;;;;;2.12;63.49;100870.06;5094958;27;20212;-66
2022/04/04 06:27:44;;;;;;;19.67;11.43;;;;;;;2.47;62.26;100858.47;5093076;28;20213;-66
2022/04/04 06:30:14;;;;;;;21.80;9.90;;;;;;;2.49;62.68;100848.75;5088483;28;20686;-66
2022/04/04 06:32:43;;;;;;;22.33;10.60;;;;;;;2.72;62.45;100857.91;5099111;28;20316;-66
2022/04/04 06:35:11;;;;;;;26.00;11.60;;;;;;;3.18;60.46;100858.66;5093837;28;20210;-66
2022/04/04 06:37:40;;;;;;;19.00;11.57;;;;;;;2.90;61.44;100853.38;5092995;28;20237;-67
2022/04/04 06:40:10;;;;;;;17.57;10.40;;;;;;;2.65;62.21;100856.56;5090301;28;20651;-66
2022/04/04 06:42:39;;;;;;;21.73;11.00;;;;;;;2.38;63.40;100852.88;5093321;28;20312;-66
2022/04/04 06:45:09;;;;;;;21.77;10.60;;;;;;;2.70;62.88;100853.69;5095582;27;20834;-66
2022/04/04 06:47:37;;;;;;;22.87;10.57;;;;;;;2.70;62.37;100851.91;5102935;27;20752;-65
2022/04/04 06:50:06;;;;;;;18.40;9.87;;;;;;;2.34;63.01;100849.63;5100648;27;20520;-66
2022/04/04 06:52:34;;;;;;;19.23;10.87;;;;;;;2.57;62.78;100848.31;5099689;27;20217;-66
2022/04/04 06:55:05;;;;;;;18.77;10.57;;;;;;;2.62;63.05;100841.88;5096880;27;20298;-66
2022/04/04 06:57:49;;;;;;;17.17;10.20;;;;;;;3.36;60.31;100840.97;5099719;27;20210;-66
2022/04/04 07:00:17;;;;;;;20.37;10.20;;;;;;;3.14;61.04;100835.34;5100646;27;20216;-66
2022/04/04 07:02:45;;;;;;;18.70;9.60;;;;;;;2.76;61.88;100824.53;5096353;27;20233;-66
2022/04/04 07:05:13;;;;;;;20.17;10.53;;;;;;;2.76;62.17;100830.59;5091480;27;20222;-67
2022/04/04 07:07:40;;;;;;;24.53;10.03;;;;;;;3.45;60.31;100834.34;5101570;28;20294;-66
2022/04/04 07:10:11;;;;;;;20.67;10.33;;;;;;;3.58;59.82;100832.66;5111036;27;20205;-66
2022/04/04 07:12:41;;;;;;;19.40;10.73;;;;;;;3.27;61.09;100833.66;5104654;27;20236;-67
2022/04/04 07:15:11;;;;;;;19.03;9.53;;;;;;;3.03;61.96;100833.38;5097954;27;20251;-66
2022/04/04 07:17:39;;;;;;;20.53;10.77;;;;;;;3.19;61.63;100828.91;5103412;27;20207;-66
2022/04/04 07:20:08;;;;;;;18.00;10.10;;;;;;;3.26;61.39;100826.75;5104597;27;20210;-66
2022/04/04 07:22:37;;;;;;;20.70;10.23;;;;;;;3.20;60.88;100825.34;5102898;28;20227;-66
2022/04/04 07:25:08;;;;;;;16.53;8.90;;;;;;;3.36;60.45;100825.25;5099546;27;20293;-66
2022/04/04 07:27:40;;;;;;;23.20;10.00;;;;;;;3.73;59.69;100822.03;5104094;27;20256;-67
2022/04/04 07:30:10;;;;;;;21.33;11.33;;;;;;;3.74;59.95;100825.50;5110148;28;20218;-66
2022/04/04 07:32:39;;;;;;;22.13;9.97;;;;;;;3.84;59.81;100821.38;5113922;28;20238;-67
2022/04/04 07:35:09;;;;;;;20.47;10.30;;;;;;;4.04;58.85;100817.50;5111921;27;20643;-66
2022/04/04 07:37:40;;;;;;;17.43;9.40;;;;;;;4.05;59.21;100816.53;5109176;27;20321;-66
2022/04/04 07:40:10;;;;;;;25.33;10.97;;;;;;;4.13;59.33;100816.91;5109906;28;20217;-66
2022/04/04 07:42:40;;;;;;;21.13;10.30;;;;;;;4.45;58.22;100804.31;5112521;28;20230;-68
2022/04/04 07:45:10;;;;;;;19.97;9.77;;;;;;;4.43;58.67;100819.31;5113371;28;20634;-67
2022/04/04 07:47:38;;;;;;;23.67;11.03;;;;;;;4.25;58.70;100810.84;5113716;28;20299;-68
2022/04/04 07:50:08;;;;;;;21.07;11.30;;;;;;;4.57;58.15;100803.50;5113677;28;20625;-67
2022/04/04 07:52:36;;;;;;;22.33;11.27;;;;;;;4.95;57.00;100800.06;5114343;28;20247;-66
2022/04/04 07:55:05;;;;;;;23.50;10.77;;;;;;;4.76;57.59;100800.47;5121232;27;20204;-66
2022/04/04 07:57:32;;;;;;;19.17;10.57;;;;;;;5.30;56.37;100790.59;5115895;27;20208;-67
2022/04/04 08:00:02;;;;;;;20.70;10.53;;;;;;;5.42;55.71;100789.75;5113711;28;20725;-68
2022/04/04 08:02:29;;;;;;;22.13;9.97;;;;;;;5.19;56.24;100786.09;5113133;28;20225;-67
2022/04/04 08:05:08;;;;;;;20.70;10.27;;;;;;;5.53;55.23;100784.59;5112166;28;20236;-67
2022/04/04 08:07:37;;;;;;;21.10;9.77;;;;;;;5.62;54.67;100783.09;5112851;28;20212;-66
2022/04/04 08:10:05;;;;;;;17.93;9.23;;;;;;;5.94;53.91;100779.03;5112279;28;20202;-64
2022/04/04 08:12:34;;;;;;;19.70;10.03;;;;;;;6.04;53.55;100768.66;5116397;27;20255;-67
2022/04/04 08:15:03;;;;;;;18.23;9.83;;;;;;;6.24;53.30;100768.06;5115623;27;20209;-67
2022/04/04 08:17:31;;;;;;;17.37;10.10;;;;;;;6.04;53.61;100763.41;5113777;28;20201;-66
2022/04/04 08:19:59;;;;;;;17.20;9.03;;;;;;;6.17;53.37;100758.91;5113770;28;20256;-65
2022/04/04 08:22:27;;;;;;;19.53;9.80;;;;;;;6.47;52.49;100749.69;5112938;28;20564;-65
2022/04/04 08:24:55;;;;;;;14.43;8.57;;;;;;;6.33;51.32;100750.72;5112164;28;20242;-64
2022/04/04 08:27:23;;;;;;;14.70;7.90;;;;;;;6.69;51.10;100747.09;5092012;28;20199;-65
2022/04/04 08:29:51;;;;;;;14.90;8.13;;;;;;;6.67;50.23;100744.63;5100037;27;20212;-64
2022/04/04 08:32:20;;;;;;;16.27;7.90;;;;;;;6.88;49.49;100747.38;5108399;27;20225;-64
2022/04/04 08:34:57;;;;;;;13.27;5.37;;;;;;;6.70;44.95;100738.25;5107826;27;20199;-64
2022/04/04 08:37:25;;;;;;;11.23;5.20;;;;;;;6.92;43.60;100733.03;5124362;27;20316;-65
2022/04/04 08:39:53;;;;;;;8.80;4.80;;;;;;;7.07;43.42;100731.81;5116249;27;20301;-65
2022/04/04 08:42:35;;;;;;;10.97;4.57;;;;;;;7.43;41.80;100732.53;5120099;27;20679;-67
2022/04/04 08:45:05;;;;;;;6.53;4.23;;;;;;;7.50;41.62;100725.81;5108417;28;20297;-67
2022/04/04 08:47:35;;;;;;;10.13;4.60;;;;;;;7.72;41.12;100723.13;5110208;28;20268;-66
2022/04/04 08:50:03;;;;;;;6.80;4.13;;;;;;;8.11;40.50;100713.75;5107430;28;20208;-65
2022/04/04 08:52:31;;;;;;;9.27;4.43;;;;;;;8.14;40.06;100712.69;5112290;28;20205;-63
2022/04/04 08:54:59;;;;;;;11.73;4.90;;;;;;;8.37;40.08;100711.63;5112852;28;20230;-68
2022/04/04 08:57:27;;;;;;;8.07;4.30;;;;;;;8.53;39.90;100700.63;5110079;28;20621;-66
2022/04/04 08:59:54;;;;;;;7.17;4.30;;;;;;;8.99;39.58;100695.72;5112023;28;20208;-66
2022/04/04 09:02:22;;;;;;;5.67;4.03;;;;;;;9.27;37.92;100688.03;5112727;28;20218;-66
2022/04/04 09:04:53;;;;;;;5.93;4.03;;;;;;;9.60;37.97;100692.16;5114599;27;20281;-66
2022/04/04 09:07:22;;;;;;;6.90;4.10;;;;;;;9.76;36.94;100689.84;5119529;27;20200;-65
2022/04/04 09:09:52;;;;;;;9.07;4.90;;;;;;;9.94;36.41;100693.44;5132008;27;20291;-66
2022/04/04 09:12:22;;;;;;;6.17;4.37;;;;;;;10.56;36.02;100686.88;5113031;27;20251;-66
2022/04/04 09:14:52;;;;;;;8.33;4.50;;;;;;;12.84;31.98;100677.69;5108472;28;20204;-69
2022/04/04 09:17:22;;;;;;;4.80;3.63;;;;;;;15.23;29.70;100671.28;5111542;28;20245;-66
2022/04/04 09:19:53;;;;;;;6.50;4.57;;;;;;;17.32;25.79;100670.78;5111980;28;20647;-65
2022/04/04 09:22:27;;;;;;;6.83;4.73;;;;;;;22.32;20.96;100655.16;5110773;28;20222;-65
2022/04/04 09:24:57;;;;;;;5.93;4.40;;;;;;;23.09;19.93;100660.03;5112943;27;20206;-65
2022/04/04 09:27:26;;;;;;;8.00;4.60;;;;;;;20.21;21.89;100647.78;5109654;28;20240;-65
2022/04/04 09:29:56;;;;;;;6.07;4.50;;;;;;;17.19;25.41;100660.72;5108179;28;20208;-64
2022/04/04 09:32:35;;;;;;;6.93;4.97;;;;;;;20.36;21.48;100639.53;5107016;28;20285;-66
2022/04/04 09:35:08;;;;;;;5.00;3.90;;;;;;;19.77;21.94;100643.78;5105475;28;20216;-66
2022/04/04 09:37:39;;;;;;;7.63;4.03;;;;;;;23.86;18.76;100625.94;5107621;27;20276;-65
2022/04/04 09:40:10;;;;;;;6.53;4.57;;;;;;;26.60;16.92;100627.03;5097932;28;20645;-65
2022/04/04 09:42:43;;;;;;;10.10;4.27;;;;;;;27.34;15.93;100611.16;5107085;27;20221;-66
2022/04/04 09:45:19;;;;;;;6.80;4.27;;;;;;;26.86;16.56;100614.59;5105471;27;20248;-66
2022/04/04 09:47:52;;;;;;;5.50;4.00;;;;;;;26.14;16.02;100613.75;5097207;27;20210;-66
2022/04/04 09:50:35;;;;;;;5.93;4.23;;;;;;;24.48;18.03;100595.78;5106751;28;20644;-66
2022/04/04 09:53:21;;;;;;;6.28;3.67;;;;;;;21.01;20.38;100603.56;5093657;27;20205;-66
2022/04/04 09:55:52;;;;;;;5.93;3.42;;;;;;;19.85;21.54;100589.78;5100111;27;20883;-66
2022/04/04 09:58:22;;;;;;;6.28;3.88;;;;;;;20.63;20.18;100584.59;5101630;27;20222;-66
2022/04/04 10:00:51;;;;;;;6.00;3.25;;;;;;;20.50;20.25;100574.66;5103372;28;20237;-66
2022/04/04 10:03:21;;;;;;;10.10;3.75;;;;;;;23.54;18.39;100563.13;5095749;28;20234;-66
2022/04/04 10:05:55;;;;;;;8.00;3.33;;;;;;;25.16;18.38;100567.97;5096533;27;20202;-62
2022/04/04 10:08:25;;;;;;;6.97;3.20;;;;;;;23.84;17.18;100568.47;5093850;27;20251;-66
2022/04/04 10:10:55;;;;;;;4.30;3.08;;;;;;;23.28;18.49;100558.06;5093568;28;20206;-66
2022/04/04 10:13:23;;;;;;;5.55;3.40;;;;;;;22.08;18.25;100565.78;5097705;27;20629;-65
2022/04/04 10:15:53;;;;;;;5.50;3.15;;;;;;;23.88;17.81;100553.41;5095084;27;20236;-65
2022/04/04 10:18:21;;;;;;;6.45;3.15;;;;;;;20.86;18.95;100546.34;5102069;28;20202;-66
2022/04/04 10:20:57;;;;;;;3.53;2.97;;;;;;;22.09;19.73;100547.72;5093370;28;20202;-66
2022/04/04 10:23:28;;;;;;;6.25;3.70;;;;;;;21.48;19.61;100544.81;5102208;28;20226;-64
2022/04/04 10:25:57;;;;;;;6.43;3.35;;;;;;;19.52;21.14;100535.13;5104282;28;20283;-64
2022/04/04 10:28:29;;;;;;;8.20;3.50;;;;;;;18.82;22.35;100543.56;5097533;27;20708;-64
2022/04/04 10:30:58;;;;;;;4.78;3.55;;;;;;;17.28;23.55;100530.97;5099810;28;20935;-64
2022/04/04 10:33:32;;;;;;;5.18;3.50;;;;;;;18.74;22.09;100548.03;5097408;28;20661;-65
2022/04/04 10:36:02;;;;;;;4.78;3.50;;;;;;;19.65;21.01;100520.84;5100896;28;20240;-65
2022/04/04 10:38:33;;;;;;;6.70;3.40;;;;;;;20.47;20.96;100526.59;5106889;28;20324;-65
2022/04/04 10:41:03;;;;;;;5.70;3.72;;;;;;;20.15;20.98;100505.91;5101377;28;20677;-65
2022/04/04 10:43:33;;;;;;;3.97;3.25;;;;;;;17.42;22.84;100510.47;5100235;28;20591;-65
2022/04/04 10:46:02;;;;;;;8.52;3.50;;;;;;;19.44;21.93;100500.28;5098733;28;20272;-65
2022/04/04 10:48:32;;;;;;;6.38;3.20;;;;;;;19.41;21.52;100489.97;5099550;28;20522;-65
2022/04/04 10:51:17;;;;;;;4.20;3.40;;;;;;;21.60;19.86;100484.56;5098489;28;20207;-65
2022/04/04 10:53:49;;;;;;;5.55;3.75;;;;;;;20.79;20.10;100483.59;5098202;28;20206;-69
2022/04/04 10:56:19;;;;;;;4.80;3.70;;;;;;;19.67;22.25;100457.75;5098049;28;20532;-66
2022/04/04 10:58:47;;;;;;;4.72;3.42;;;;;;;18.39;22.72;100458.59;5100213;28;20213;-65
2022/04/04 11:01:16;;;;;;;6.28;3.22;;;;;;;19.80;20.85;100443.44;5104891;28;20233;-63
2022/04/04 11:04:00;;;;;;;5.10;3.25;;;;;;;20.69;20.26;100448.19;5101436;28;20313;-63
2022/04/04 11:09:32;;;;;;;4.43;2.97;;;;;;;17.92;23.32;100447.81;5099669;28;20746;-63
2022/04/04 11:12:11;;;;;;;4.35;2.80;;;;;;;19.62;21.20;100430.63;5100494;28;20214;-64
2022/04/04 11:14:54;;;;;;;8.60;3.38;;;;;;;18.06;22.33;100420.03;5102022;28;20212;-64
2022/04/04 11:17:36;;;;;;;4.85;3.13;;;;;;;18.88;21.17;100421.84;5106282;28;20210;-65
2022/04/04 11:20:14;;;;;;;6.05;2.53;;;;;;;18.46;22.34;100422.94;5097193;28;20262;-65
2022/04/04 11:22:46;;;;;;;5.68;2.75;;;;;;;19.90;20.71;100409.69;5100268;28;20210;-66
2022/04/04 11:25:17;;;;;;;7.32;2.50;;;;;;;19.87;20.54;100406.59;5100295;28;20225;-66
2022/04/04 11:27:48;;;;;;;5.95;3.10;;;;;;;22.52;19.05;100399.09;5100681;28;20225;-65
2022/04/04 11:30:23;;;;;;;4.45;2.80;;;;;;;22.59;19.03;100386.34;5104988;28;20287;-64
2022/04/04 11:32:54;;;;;;;5.82;2.83;;;;;;;22.25;19.24;100389.69;5100865;27;20210;-65
2022/04/04 11:35:27;;;;;;;3.72;3.03;;;;;;;20.24;20.27;100383.50;5101853;27;20269;-65
2022/04/04 11:37:57;;;;;;;5.80;2.90;;;;;;;20.83;20.93;100387.81;5099231;27;20608;-66
2022/04/04 11:40:33;;;;;;;4.82;3.40;;;;;;;19.05;21.97;100383.63;5108508;27;20490;-65
2022/04/04 11:43:05;;;;;;;5.82;3.40;;;;;;;18.83;21.05;100366.03;5101736;28;20252;-65